Time;durP1;ratioP1;P1;durP2;ratioP2;P2;SDS_P1;SDS_P2;PMS_P1;PMS_P2;Temp;Humidity;BMP_temperature;BMP_pressure;BME280_temperature;BME280_humidity;BME280_pressure;Samples;Min_cycle;Max_cycle;Signal;HPM_P1;HPM_P2
2022/03/22 00:01:28;;;;;;;47.90;26.45;;;3.90;99.90;;;;;;4974695;28;20477;-84
2022/03/22 00:03:54;;;;;;;45.60;26.50;;;3.90;99.90;;;;;;4974543;28;20140;-83
2022/03/22 00:06:21;;;;;;;48.67;25.48;;;3.90;99.90;;;;;;4944457;28;20038;-83
2022/03/22 00:08:48;;;;;;;47.65;25.75;;;3.90;99.90;;;;;;4973942;28;20045;-84
2022/03/22 00:11:14;;;;;;;48.70;27.13;;;3.90;99.90;;;;;;4974091;28;20120;-84
2022/03/22 00:13:43;;;;;;;47.80;26.90;;;3.90;99.90;;;;;;4959782;28;20034;-83
2022/03/22 00:16:09;;;;;;;48.55;26.73;;;3.90;99.90;;;;;;4974751;28;20038;-83
2022/03/22 00:18:38;;;;;;;46.20;26.55;;;3.90;99.90;;;;;;4975635;28;20073;-83
2022/03/22 00:21:06;;;;;;;45.20;26.05;;;3.90;99.90;;;;;;4968593;28;20034;-83
2022/03/22 00:23:33;;;;;;;48.10;27.02;;;3.90;99.90;;;;;;4976059;28;20089;-83
2022/03/22 00:25:58;;;;;;;47.97;26.17;;;3.90;99.90;;;;;;4958692;28;20509;-83
2022/03/22 00:28:24;;;;;;;48.15;27.25;;;3.90;99.90;;;;;;4965582;28;20065;-83
2022/03/22 00:30:50;;;;;;;54.28;30.30;;;3.90;99.90;;;;;;4973460;28;20092;-83
2022/03/22 00:33:16;;;;;;;49.88;28.77;;;3.90;99.90;;;;;;4975743;28;20389;-84
2022/03/22 00:35:42;;;;;;;48.20;27.88;;;4.00;99.90;;;;;;4975622;28;20042;-84
2022/03/22 00:38:16;;;;;;;46.00;28.83;;;3.90;99.90;;;;;;4959304;28;20042;-84
2022/03/22 00:40:43;;;;;;;48.45;26.33;;;3.90;99.90;;;;;;4975993;28;20045;-84
2022/03/22 00:43:09;;;;;;;48.08;27.75;;;3.90;99.90;;;;;;4955872;28;20034;-84
2022/03/22 00:45:39;;;;;;;56.03;31.58;;;3.90;99.90;;;;;;4971990;28;20041;-84
2022/03/22 00:48:07;;;;;;;53.80;30.48;;;3.90;99.90;;;;;;4944342;28;20049;-84
2022/03/22 00:50:38;;;;;;;50.28;29.17;;;4.00;99.90;;;;;;4973240;28;20121;-84
2022/03/22 00:53:07;;;;;;;44.78;25.40;;;4.00;99.90;;;;;;4972654;28;20034;-83
2022/03/22 00:55:33;;;;;;;51.80;28.92;;;4.00;99.90;;;;;;4972979;28;20374;-83
2022/03/22 00:57:59;;;;;;;52.08;30.00;;;4.00;99.90;;;;;;4971581;28;20046;-83
2022/03/22 01:00:26;;;;;;;52.38;29.75;;;3.90;99.90;;;;;;4974783;28;20472;-84
2022/03/22 01:02:54;;;;;;;51.45;31.42;;;3.90;99.90;;;;;;4973048;28;20069;-84
2022/03/22 01:05:22;;;;;;;54.30;30.30;;;3.90;99.90;;;;;;4957962;28;20495;-84
2022/03/22 01:07:50;;;;;;;55.10;30.85;;;4.00;99.90;;;;;;4974516;28;20046;-84
2022/03/22 01:10:17;;;;;;;50.72;30.08;;;3.90;99.90;;;;;;4989470;28;20054;-83
2022/03/22 01:12:45;;;;;;;52.58;31.00;;;3.90;99.90;;;;;;4974142;28;20108;-84
2022/03/22 01:15:15;;;;;;;49.50;29.30;;;3.90;99.90;;;;;;4954073;28;20045;-84
2022/03/22 01:17:46;;;;;;;49.83;29.92;;;3.90;99.90;;;;;;4972848;28;20034;-84
2022/03/22 01:20:12;;;;;;;52.78;30.08;;;3.90;99.90;;;;;;4959093;28;20485;-86
2022/03/22 01:22:39;;;;;;;53.80;32.05;;;3.90;99.90;;;;;;4959611;28;20041;-86
2022/03/22 01:25:09;;;;;;;56.70;32.17;;;4.00;99.90;;;;;;4975947;28;20044;-86
2022/03/22 01:27:36;;;;;;;55.33;31.77;;;3.90;99.90;;;;;;4975428;28;20034;-86
2022/03/22 01:30:05;;;;;;;53.35;31.20;;;3.90;99.90;;;;;;4975804;28;20041;-86
2022/03/22 01:32:31;;;;;;;60.35;32.42;;;3.90;99.90;;;;;;4959540;28;20117;-86
2022/03/22 01:34:56;;;;;;;59.70;32.83;;;3.90;99.90;;;;;;4959921;28;20058;-84
2022/03/22 01:37:22;;;;;;;55.30;32.13;;;3.90;99.90;;;;;;4928541;28;20034;-83
2022/03/22 01:39:48;;;;;;;60.55;33.17;;;3.90;99.90;;;;;;4945429;28;20097;-83
2022/03/22 01:42:14;;;;;;;62.15;33.25;;;3.90;99.90;;;;;;4959775;28;20053;-83
2022/03/22 01:44:39;;;;;;;56.05;33.47;;;3.90;99.90;;;;;;4975510;28;20531;-83
2022/03/22 01:47:06;;;;;;;54.58;32.85;;;3.90;99.90;;;;;;4959755;28;20065;-83
2022/03/22 01:49:33;;;;;;;63.00;33.85;;;3.90;99.90;;;;;;4958312;28;20377;-83
2022/03/22 01:52:00;;;;;;;56.22;32.25;;;3.90;99.90;;;;;;4975781;28;20096;-84
2022/03/22 01:54:25;;;;;;;59.58;34.17;;;3.90;99.90;;;;;;4958076;28;20042;-85
2022/03/22 01:56:51;;;;;;;55.80;32.53;;;3.80;99.90;;;;;;4990689;28;20045;-85
2022/03/22 01:59:17;;;;;;;56.70;32.60;;;3.80;99.90;;;;;;4957773;28;20548;-85
2022/03/22 02:07:14;;;;;;;54.55;32.08;;;3.80;99.90;;;;;;4974458;28;20054;-85
2022/03/22 02:09:41;;;;;;;53.08;32.50;;;3.80;99.90;;;;;;4973194;28;20038;-84
2022/03/22 02:12:07;;;;;;;54.83;33.65;;;3.80;99.90;;;;;;4973549;28;20073;-84
2022/03/22 02:14:33;;;;;;;56.05;33.88;;;3.80;99.90;;;;;;4970523;28;20396;-84
2022/03/22 02:17:06;;;;;;;58.58;33.13;;;3.80;99.90;;;;;;4940698;28;20057;-84
2022/03/22 02:19:33;;;;;;;63.60;32.47;;;3.80;99.90;;;;;;4956274;28;20725;-84
2022/03/22 02:22:05;;;;;;;52.55;31.90;;;3.80;99.90;;;;;;4940201;28;20477;-84
2022/03/22 02:24:31;;;;;;;55.08;32.08;;;3.70;99.90;;;;;;4954139;28;20490;-84
2022/03/22 02:26:57;;;;;;;55.28;33.47;;;3.70;99.90;;;;;;4953740;28;20104;-83
2022/03/22 02:29:22;;;;;;;59.33;33.03;;;3.70;99.90;;;;;;4969440;28;20480;-83
2022/03/22 02:31:48;;;;;;;53.30;31.00;;;3.70;99.90;;;;;;4956480;28;20069;-84
2022/03/22 02:34:14;;;;;;;52.85;32.13;;;3.60;99.90;;;;;;4971542;28;20046;-83
2022/03/22 02:36:39;;;;;;;59.15;33.72;;;3.60;99.90;;;;;;4956744;28;20088;-83
2022/03/22 02:39:05;;;;;;;52.83;31.77;;;3.60;99.90;;;;;;4954665;28;20038;-84
2022/03/22 02:41:32;;;;;;;57.97;32.83;;;3.60;99.90;;;;;;4955289;28;20388;-84
2022/03/22 02:43:57;;;;;;;55.55;31.95;;;3.60;99.90;;;;;;4956259;28;20432;-83
2022/03/22 02:46:23;;;;;;;54.95;33.33;;;3.60;99.90;;;;;;4941903;28;20061;-84
2022/03/22 02:48:49;;;;;;;56.72;32.10;;;3.70;99.90;;;;;;4956590;28;20563;-84
2022/03/22 02:51:15;;;;;;;55.70;33.40;;;3.60;99.90;;;;;;4956171;28;20054;-85
2022/03/22 02:53:41;;;;;;;59.38;32.58;;;3.60;99.90;;;;;;4938927;28;20400;-86
2022/03/22 02:56:07;;;;;;;52.08;32.55;;;3.60;99.90;;;;;;4971936;28;20057;-86
2022/03/22 02:58:33;;;;;;;52.55;32.63;;;3.60;99.90;;;;;;4953637;28;20031;-87
2022/03/22 03:01:00;;;;;;;58.58;33.80;;;3.50;99.90;;;;;;4957078;28;20041;-87
2022/03/22 03:03:27;;;;;;;54.33;31.23;;;3.60;99.90;;;;;;4971111;28;20046;-86
2022/03/22 03:05:52;;;;;;;58.92;31.92;;;3.50;99.90;;;;;;4974792;28;20042;-86
2022/03/22 03:08:19;;;;;;;55.75;32.75;;;3.50;99.90;;;;;;4959489;28;20038;-86
2022/03/22 03:10:46;;;;;;;56.25;32.03;;;3.50;99.90;;;;;;4975176;28;20042;-86
2022/03/22 03:13:12;;;;;;;54.47;32.80;;;3.40;99.90;;;;;;4974714;28;20046;-86
2022/03/22 03:15:38;;;;;;;60.47;34.10;;;3.40;99.90;;;;;;4973078;28;20088;-84
2022/03/22 03:18:04;;;;;;;57.65;32.50;;;3.40;99.90;;;;;;4977322;28;20034;-84
2022/03/22 03:20:30;;;;;;;61.45;33.75;;;3.40;99.90;;;;;;4973896;28;20476;-85
2022/03/22 03:22:56;;;;;;;57.38;33.20;;;3.40;99.90;;;;;;4976443;28;20092;-85
2022/03/22 03:25:22;;;;;;;57.85;32.47;;;3.40;99.90;;;;;;4960244;28;20041;-85
2022/03/22 03:27:49;;;;;;;58.00;32.65;;;3.40;99.90;;;;;;4977559;28;20503;-85
2022/03/22 03:30:16;;;;;;;57.22;33.75;;;3.30;99.90;;;;;;4975394;28;20050;-85
2022/03/22 03:32:42;;;;;;;55.92;30.83;;;3.30;99.90;;;;;;4946319;28;20122;-86
2022/03/22 03:35:08;;;;;;;55.35;32.92;;;3.30;99.90;;;;;;4961466;28;20078;-86
2022/03/22 03:37:37;;;;;;;55.33;32.95;;;3.30;99.90;;;;;;4961915;28;20066;-86
2022/03/22 03:40:04;;;;;;;56.60;32.42;;;3.30;99.90;;;;;;4960375;28;20045;-86
2022/03/22 03:42:30;;;;;;;57.67;33.28;;;3.30;99.90;;;;;;4961558;28;20034;-86
2022/03/22 03:47:40;;;;;;;61.22;33.08;;;3.30;99.90;;;;;;4963851;28;20325;-86
2022/03/22 03:50:07;;;;;;;63.92;34.00;;;3.30;99.90;;;;;;4961896;28;20081;-85
2022/03/22 03:52:37;;;;;;;56.70;32.60;;;3.30;99.90;;;;;;4977478;28;20144;-85
2022/03/22 03:55:05;;;;;;;58.03;32.80;;;3.30;99.90;;;;;;4977185;28;20034;-85
2022/03/22 03:57:32;;;;;;;58.78;32.92;;;3.30;99.90;;;;;;4977387;28;20053;-85
2022/03/22 03:59:58;;;;;;;58.33;32.72;;;3.30;99.90;;;;;;4977661;28;20034;-85
2022/03/22 04:02:24;;;;;;;56.35;31.63;;;3.20;99.90;;;;;;4960719;28;20031;-85
2022/03/22 04:04:53;;;;;;;57.97;31.98;;;3.20;99.90;;;;;;4992291;28;20038;-84
2022/03/22 04:07:22;;;;;;;52.88;31.63;;;3.20;99.90;;;;;;4960749;28;20042;-84
2022/03/22 04:09:48;;;;;;;60.83;34.95;;;3.20;99.90;;;;;;4957529;28;20050;-84
2022/03/22 04:12:14;;;;;;;56.88;33.10;;;3.20;99.90;;;;;;4956180;28;20077;-83
2022/03/22 04:14:40;;;;;;;56.08;32.67;;;3.10;99.90;;;;;;4959635;28;20081;-83
2022/03/22 04:17:09;;;;;;;59.00;33.63;;;3.10;99.90;;;;;;4972939;28;20516;-83
2022/03/22 04:19:36;;;;;;;59.78;32.88;;;3.10;99.90;;;;;;4959655;28;20396;-84
2022/03/22 04:22:06;;;;;;;65.97;35.13;;;3.10;99.90;;;;;;4957231;28;20042;-84
2022/03/22 04:24:32;;;;;;;62.40;35.20;;;3.00;99.90;;;;;;4975891;28;20385;-84
2022/03/22 04:32:41;;;;;;;59.58;35.88;;;3.00;99.90;;;;;;4958747;28;20034;-84
2022/03/22 04:32:44;;;;;;;60.72;33.53;;;3.00;99.90;;;;;;4963231;23;20054;-84
2022/03/22 04:35:12;;;;;;;55.65;33.38;;;3.00;99.90;;;;;;4929174;28;20035;-83
2022/03/22 04:37:38;;;;;;;59.85;32.58;;;3.00;99.90;;;;;;4944506;28;20046;-84
2022/03/22 04:40:04;;;;;;;56.40;32.65;;;3.00;99.90;;;;;;4937302;28;20046;-84
2022/03/22 04:42:30;;;;;;;58.42;34.15;;;3.00;99.90;;;;;;4930142;28;20678;-84
2022/03/22 04:44:55;;;;;;;58.97;34.00;;;3.00;99.90;;;;;;4939103;28;20041;-84
2022/03/22 04:47:21;;;;;;;60.92;35.60;;;3.00;99.90;;;;;;4937951;28;20043;-84
2022/03/22 04:49:47;;;;;;;59.00;33.63;;;3.00;99.90;;;;;;4948003;28;20039;-84
2022/03/22 04:57:57;;;;;;;67.28;34.60;;;2.90;99.90;;;;;;4935899;28;20055;-86
2022/03/22 05:00:23;;;;;;;63.20;34.72;;;2.90;99.90;;;;;;4927861;28;20359;-86
2022/03/22 05:02:49;;;;;;;64.72;33.75;;;2.90;99.90;;;;;;4896286;28;20491;-86
2022/03/22 05:05:15;;;;;;;56.90;33.05;;;2.90;99.90;;;;;;4937223;28;20063;-86
2022/03/22 05:07:41;;;;;;;65.30;34.85;;;2.90;99.90;;;;;;4937692;28;20066;-86
2022/03/22 05:10:08;;;;;;;62.10;35.03;;;2.90;99.90;;;;;;4891752;28;20040;-86
2022/03/22 05:12:37;;;;;;;61.75;34.28;;;2.90;99.90;;;;;;4939009;28;20500;-85
2022/03/22 05:15:03;;;;;;;55.13;32.03;;;2.90;99.90;;;;;;4939615;29;20378;-84
2022/03/22 05:17:29;;;;;;;58.53;33.72;;;2.90;99.90;;;;;;4939103;29;20054;-84
2022/03/22 05:19:55;;;;;;;60.93;34.47;;;2.80;99.90;;;;;;4937344;28;20039;-85
2022/03/22 05:22:21;;;;;;;65.45;35.03;;;2.80;99.90;;;;;;4938763;28;20031;-84
2022/03/22 05:24:47;;;;;;;64.40;35.55;;;2.90;99.90;;;;;;4924830;28;20474;-84
2022/03/22 05:27:17;;;;;;;65.10;35.73;;;2.90;99.90;;;;;;4938103;28;20061;-85
2022/03/22 05:29:44;;;;;;;59.72;33.97;;;2.90;99.90;;;;;;4922060;28;20132;-84
2022/03/22 05:32:10;;;;;;;63.85;35.33;;;2.90;99.90;;;;;;4920961;28;20127;-84
2022/03/22 05:34:36;;;;;;;64.57;36.17;;;2.90;99.90;;;;;;4921614;28;20471;-84
2022/03/22 05:37:02;;;;;;;63.58;34.38;;;2.90;99.90;;;;;;4922423;28;20046;-83
2022/03/22 05:39:28;;;;;;;61.60;35.42;;;2.90;99.90;;;;;;4922192;28;20043;-84
2022/03/22 05:41:54;;;;;;;61.23;33.37;;;2.90;99.90;;;;;;4922439;28;20069;-84
2022/03/22 05:44:21;;;;;;;63.17;34.08;;;2.80;99.90;;;;;;4922708;28;20047;-83
2022/03/22 05:46:46;;;;;;;68.93;35.20;;;2.80;99.90;;;;;;4920979;28;20036;-86
2022/03/22 05:49:13;;;;;;;64.97;36.80;;;2.80;99.90;;;;;;4921902;28;20102;-86
2022/03/22 05:51:39;;;;;;;54.78;31.92;;;2.90;99.90;;;;;;4918233;28;20101;-87
2022/03/22 05:54:05;;;;;;;56.15;31.73;;;2.90;99.90;;;;;;4938497;28;20043;-87
2022/03/22 05:56:31;;;;;;;57.22;33.65;;;2.90;99.90;;;;;;4918634;28;20517;-87
2022/03/22 05:59:00;;;;;;;62.78;34.60;;;2.90;99.90;;;;;;4937302;28;20047;-86
2022/03/22 06:01:27;;;;;;;63.35;36.55;;;3.00;99.90;;;;;;4916944;28;20036;-86
2022/03/22 06:03:53;;;;;;;63.47;36.45;;;3.00;99.90;;;;;;4940763;28;20043;-86
2022/03/22 06:06:18;;;;;;;61.10;35.15;;;3.10;99.90;;;;;;4924238;28;20511;-87
2022/03/22 06:08:45;;;;;;;62.83;34.88;;;3.10;99.90;;;;;;4941385;28;20509;-87
2022/03/22 06:11:11;;;;;;;56.10;33.88;;;3.20;99.90;;;;;;4938719;28;20039;-87
2022/03/22 06:13:37;;;;;;;60.78;33.88;;;3.20;99.90;;;;;;4921768;28;20046;-87
2022/03/22 06:16:05;;;;;;;61.38;34.83;;;3.30;99.90;;;;;;4924342;28;20038;-87
2022/03/22 06:18:31;;;;;;;53.95;32.55;;;3.40;99.90;;;;;;4925342;28;20378;-85
2022/03/22 06:20:56;;;;;;;57.92;32.92;;;3.50;99.90;;;;;;4951422;28;20058;-84
2022/03/22 06:23:23;;;;;;;63.75;35.85;;;3.50;99.90;;;;;;4949571;28;20042;-85
2022/03/22 06:25:48;;;;;;;51.53;30.92;;;3.70;99.90;;;;;;4946320;29;20054;-84
2022/03/22 06:28:14;;;;;;;53.00;30.92;;;3.80;99.90;;;;;;4937772;29;20035;-85
2022/03/22 06:30:40;;;;;;;54.13;32.03;;;4.00;99.90;;;;;;4938004;29;20042;-85
2022/03/22 06:33:17;;;;;;;64.28;35.55;;;4.30;99.90;;;;;;4936206;29;20060;-85
2022/03/22 06:35:43;;;;;;;;;;;4.60;99.90;;;;;;4937973;29;20051;-85
2022/03/22 06:38:09;;;;;;;52.60;31.30;;;5.10;99.90;;;;;;4929408;28;20265;-84
2022/03/22 06:40:38;;;;;;;56.95;33.92;;;5.50;99.90;;;;;;4932464;28;20042;-84
2022/03/22 06:43:10;;;;;;;56.45;34.05;;;5.90;99.90;;;;;;4944142;29;20098;-84
2022/03/22 06:45:37;;;;;;;50.42;32.38;;;6.30;99.90;;;;;;4939258;28;20482;-85
2022/03/22 06:48:03;;;;;;;50.05;32.08;;;6.60;99.90;;;;;;4938858;29;20047;-84
2022/03/22 06:50:31;;;;;;;54.13;33.85;;;7.00;99.90;;;;;;4925582;29;20039;-85
2022/03/22 06:52:57;;;;;;;64.78;39.55;;;;;;;;;;4914539;29;20078;-85
2022/03/22 06:55:23;;;;;;;75.88;44.38;;;8.00;99.90;;;;;;4923461;28;20039;-84
2022/03/22 06:57:53;;;;;;;67.75;41.20;;;8.50;99.90;;;;;;4931945;28;20042;-85
2022/03/22 07:00:20;;;;;;;62.47;36.75;;;9.00;99.90;;;;;;4922246;29;20035;-85
2022/03/22 07:02:48;;;;;;;52.63;34.65;;;9.30;99.90;;;;;;4922651;29;20413;-85
2022/03/22 07:05:14;;;;;;;51.40;32.47;;;9.50;99.90;;;;;;4938317;29;20047;-85
2022/03/22 07:07:40;;;;;;;47.05;32.42;;;9.70;99.90;;;;;;4937481;29;20047;-85
2022/03/22 07:10:08;;;;;;;51.58;31.33;;;9.80;99.90;;;;;;4921499;29;20485;-85
2022/03/22 07:12:34;;;;;;;47.08;32.30;;;9.80;99.90;;;;;;4920956;29;20482;-85
2022/03/22 07:15:03;;;;;;;47.45;32.45;;;10.00;99.90;;;;;;4931083;29;20047;-85
2022/03/22 07:17:29;;;;;;;43.47;31.23;;;10.30;99.90;;;;;;4924473;29;20042;-85
2022/03/22 07:19:55;;;;;;;45.15;30.80;;;10.90;99.90;;;;;;4930700;29;20040;-86
2022/03/22 07:22:21;;;;;;;43.05;30.92;;;11.40;99.90;;;;;;4900062;29;20066;-85
2022/03/22 07:24:46;;;;;;;45.70;29.70;;;11.90;99.90;;;;;;4921029;29;20046;-86
2022/03/22 07:27:13;;;;;;;41.60;29.35;;;12.20;99.90;;;;;;4920848;29;20039;-86
2022/03/22 07:29:39;;;;;;;40.63;29.27;;;12.80;99.90;;;;;;4935789;28;20098;-86
2022/03/22 07:32:05;;;;;;;41.58;28.50;;;13.50;99.90;;;;;;4931859;29;20064;-86
2022/03/22 07:34:31;;;;;;;43.58;29.63;;;14.10;99.90;;;;;;4932730;28;20079;-86
2022/03/22 07:36:57;;;;;;;41.72;29.35;;;14.50;99.90;;;;;;4940826;29;20085;-86
2022/03/22 07:39:24;;;;;;;38.95;28.63;;;14.40;99.90;;;;;;4942919;28;20458;-87
2022/03/22 07:41:50;;;;;;;40.45;29.75;;;14.20;99.90;;;;;;4920764;29;20050;-86
2022/03/22 07:44:16;;;;;;;38.42;28.40;;;13.90;99.90;;;;;;4943375;29;20044;-86
2022/03/22 07:46:46;;;;;;;39.85;28.77;;;13.70;99.90;;;;;;4946569;28;20042;-86
2022/03/22 07:54:42;;;;;;;40.00;29.67;;;13.20;99.90;;;;;;4929453;28;20101;-87
2022/03/22 07:57:08;;;;;;;38.17;27.88;;;12.80;99.90;;;;;;4948642;28;20125;-87
2022/03/22 07:59:35;;;;;;;39.17;27.92;;;12.70;99.90;;;;;;4926950;29;20067;-87
2022/03/22 08:02:01;;;;;;;36.78;26.60;;;12.70;99.90;;;;;;4940613;29;20492;-87
2022/03/22 08:04:27;;;;;;;37.58;26.05;;;13.00;99.90;;;;;;4940387;29;20098;-87
2022/03/22 08:06:53;;;;;;;36.83;25.98;;;13.20;99.90;;;;;;4943242;29;20031;-87
2022/03/22 08:09:19;;;;;;;38.22;27.33;;;13.30;99.90;;;;;;4944854;29;20130;-87
2022/03/22 08:11:45;;;;;;;36.67;27.33;;;13.50;99.90;;;;;;4921888;28;20047;-87
2022/03/22 08:14:11;;;;;;;38.78;28.65;;;13.60;99.90;;;;;;4931797;29;20071;-87
2022/03/22 08:16:37;;;;;;;37.72;27.27;;;13.70;99.90;;;;;;4940520;29;20102;-88
2022/03/22 08:19:06;;;;;;;40.20;28.15;;;13.90;99.90;;;;;;4913876;29;20118;-87
2022/03/22 08:21:33;;;;;;;46.10;27.90;;;14.00;99.90;;;;;;4949162;28;20402;-86
2022/03/22 08:23:59;;;;;;;36.97;27.48;;;14.10;99.90;;;;;;4949173;29;20078;-87
2022/03/22 08:26:25;;;;;;;39.28;26.45;;;14.10;99.90;;;;;;4916142;29;20473;-87
2022/03/22 08:28:51;;;;;;;35.40;26.10;;;14.30;99.90;;;;;;4942151;28;20043;-87
2022/03/22 08:31:17;;;;;;;39.00;26.27;;;14.40;99.90;;;;;;4936373;29;20047;-86
2022/03/22 08:33:42;;;;;;;37.70;27.08;;;14.90;99.90;;;;;;4949906;28;20055;-87
2022/03/22 08:36:08;;;;;;;36.75;27.60;;;15.20;99.90;;;;;;4933016;29;20063;-86
2022/03/22 08:38:34;;;;;;;38.78;26.70;;;15.60;99.90;;;;;;4939881;29;20035;-87
2022/03/22 08:41:01;;;;;;;40.42;27.85;;;16.00;99.90;;;;;;4924433;29;20363;-88
2022/03/22 08:43:27;;;;;;;36.75;26.52;;;16.20;98.60;;;;;;4922106;28;20047;-87
2022/03/22 08:45:54;;;;;;;32.88;25.95;;;16.50;99.10;;;;;;4939895;29;20043;-87
2022/03/22 08:48:20;;;;;;;34.63;25.17;;;16.90;98.80;;;;;;4915447;28;20130;-90
2022/03/22 08:50:49;;;;;;;33.75;25.50;;;17.20;98.30;;;;;;4938563;28;20129;-89
2022/03/22 08:53:16;;;;;;;36.17;26.88;;;17.40;97.20;;;;;;4925026;29;20094;-89
2022/03/22 08:55:47;;;;;;;32.10;25.52;;;17.60;96.60;;;;;;4939829;29;20494;-88
2022/03/22 08:58:13;;;;;;;34.38;26.80;;;17.90;95.60;;;;;;4922380;29;20065;-89
2022/03/22 09:00:40;;;;;;;35.47;26.60;;;18.10;94.90;;;;;;4917665;28;20169;-88
2022/03/22 09:03:08;;;;;;;33.20;25.52;;;18.40;94.10;;;;;;4924192;28;20071;-89
2022/03/22 09:08:18;;;;;;;35.85;25.90;;;19.60;93.30;;;;;;4947481;28;20039;-89
2022/03/22 09:10:46;;;;;;;35.13;26.40;;;20.70;91.70;;;;;;4933253;28;20043;-89
2022/03/22 09:13:13;;;;;;;36.40;26.08;;;21.70;88.60;;;;;;4926602;28;20042;-88
2022/03/22 09:15:39;;;;;;;30.02;24.95;;;22.50;80.70;;;;;;4942564;28;20516;-88
2022/03/22 09:18:15;;;;;;;29.83;25.35;;;23.00;79.40;;;;;;4930820;28;20455;-88
2022/03/22 09:20:45;;;;;;;31.45;25.83;;;23.10;74.50;;;;;;4941586;29;20122;-87
2022/03/22 09:23:11;;;;;;;32.67;25.67;;;23.30;73.30;;;;;;4944512;28;20047;-88
2022/03/22 09:25:39;;;;;;;28.40;25.05;;;22.90;68.80;;;;;;4927954;28;20039;-90
2022/03/22 09:28:06;;;;;;;31.88;24.17;;;22.50;69.20;;;;;;4949366;28;20043;-89
2022/03/22 09:30:33;;;;;;;30.70;26.15;;;22.10;72.70;;;;;;4927073;28;20065;-90
2022/03/22 09:32:59;;;;;;;33.72;26.70;;;20.90;71.40;;;;;;4943589;28;20405;-90
2022/03/22 09:35:25;;;;;;;32.80;26.40;;;21.20;71.80;;;;;;4932825;28;20039;-90
2022/03/22 09:37:51;;;;;;;31.83;24.60;;;20.50;72.30;;;;;;4926545;28;20122;-90
2022/03/22 09:40:18;;;;;;;30.10;25.80;;;21.80;74.40;;;;;;4940301;28;20382;-90
2022/03/22 09:42:45;;;;;;;30.23;25.85;;;22.90;72.20;;;;;;4937556;28;20042;-90
2022/03/22 09:45:14;;;;;;;30.58;25.58;;;23.30;71.80;;;;;;4938702;28;20137;-91
2022/03/22 09:47:42;;;;;;;33.83;24.67;;;24.20;67.20;;;;;;4944603;28;20043;-91
2022/03/22 09:50:10;;;;;;;28.88;24.80;;;25.20;69.50;;;;;;4939669;28;20383;-91
2022/03/22 09:52:36;;;;;;;28.48;23.98;;;25.80;67.50;;;;;;4928385;28;20047;-91
2022/03/22 09:55:07;;;;;;;28.63;24.33;;;26.00;66.20;;;;;;4948767;29;20062;-89
2022/03/22 09:57:34;;;;;;;26.92;23.85;;;26.50;64.50;;;;;;4927649;28;20422;-89
2022/03/22 10:00:00;;;;;;;29.95;24.88;;;25.80;61.00;;;;;;4932583;28;20043;-89
2022/03/22 10:02:30;;;;;;;26.80;23.00;;;25.70;62.40;;;;;;4931563;28;20043;-88
2022/03/22 10:04:56;;;;;;;27.05;23.60;;;25.70;61.90;;;;;;4944884;28;20039;-89
2022/03/22 10:07:23;;;;;;;27.40;24.50;;;26.60;61.50;;;;;;4933318;28;20499;-89
2022/03/22 10:09:54;;;;;;;27.27;24.27;;;26.70;60.40;;;;;;4942733;29;20039;-89
2022/03/22 10:12:31;;;;;;;26.85;23.95;;;27.10;57.00;;;;;;4953440;29;20046;-89
2022/03/22 10:15:15;;;;;;;27.45;24.33;;;27.30;56.50;;;;;;4935022;28;20039;-89
2022/03/22 10:17:43;;;;;;;26.13;22.58;;;28.10;57.70;;;;;;4933444;28;20045;-89
2022/03/22 10:20:20;;;;;;;26.92;22.23;;;28.30;57.80;;;;;;4943209;28;20047;-89
2022/03/22 10:22:54;;;;;;;27.17;24.13;;;28.70;57.70;;;;;;4930328;28;20035;-89
2022/03/22 10:25:20;;;;;;;26.23;23.43;;;28.90;52.60;;;;;;4947528;28;20038;-89
2022/03/22 10:27:46;;;;;;;24.83;22.15;;;28.10;55.40;;;;;;4945421;28;20059;-90
2022/03/22 10:30:12;;;;;;;27.17;22.63;;;28.70;54.90;;;;;;4946264;28;20138;-91
2022/03/22 10:32:41;;;;;;;27.85;21.83;;;28.90;54.10;;;;;;4954653;23;20053;-89
2022/03/22 10:35:16;;;;;;;24.55;21.35;;;29.20;54.10;;;;;;5000292;28;20038;-89
2022/03/22 10:37:43;;;;;;;23.23;20.80;;;29.10;53.30;;;;;;5001936;28;20034;-89
2022/03/22 10:40:44;;;;;;;24.08;21.30;;;29.50;54.20;;;;;;4979211;28;20121;-88
2022/03/22 10:43:13;;;;;;;29.13;22.63;;;29.40;51.60;;;;;;4984057;28;20038;-89
2022/03/22 10:45:50;;;;;;;28.02;22.85;;;30.10;53.50;;;;;;4983388;28;20355;-89
2022/03/22 10:48:26;;;;;;;23.73;20.52;;;29.60;51.00;;;;;;4957406;28;20121;-90
2022/03/22 10:50:53;;;;;;;27.42;21.63;;;29.70;52.20;;;;;;4979522;28;20727;-90
2022/03/22 10:53:21;;;;;;;26.38;20.52;;;29.90;52.50;;;;;;4981511;28;20451;-90
2022/03/22 10:55:48;;;;;;;23.30;20.83;;;30.00;52.10;;;;;;5002657;28;20050;-89
2022/03/22 10:58:15;;;;;;;23.08;20.23;;;30.30;52.10;;;;;;4982702;28;20033;-90
2022/03/22 11:00:45;;;;;;;24.65;21.35;;;30.40;51.10;;;;;;4965573;28;20484;-89
2022/03/22 11:03:14;;;;;;;24.77;20.73;;;30.70;50.50;;;;;;4990903;28;20034;-90
2022/03/22 11:05:52;;;;;;;22.17;19.38;;;31.00;50.70;;;;;;4987520;28;20048;-90
2022/03/22 11:08:19;;;;;;;21.70;19.35;;;30.70;49.00;;;;;;4985513;28;20041;-90
2022/03/22 11:10:45;;;;;;;23.92;20.10;;;30.60;50.00;;;;;;4973044;28;20116;-89
2022/03/22 11:13:12;;;;;;;23.63;21.13;;;30.40;49.40;;;;;;4993753;28;20153;-90
2022/03/22 11:15:42;;;;;;;22.50;19.65;;;29.50;49.70;;;;;;4969339;28;20041;-89
2022/03/22 11:18:09;;;;;;;24.58;21.30;;;29.40;49.10;;;;;;4985202;28;20042;-90
2022/03/22 11:20:34;;;;;;;22.75;19.33;;;29.20;49.60;;;;;;4967680;28;20477;-89
2022/03/22 11:23:01;;;;;;;23.88;20.25;;;30.20;48.70;;;;;;4965617;28;20049;-89
2022/03/22 11:25:34;;;;;;;24.83;22.25;;;30.30;49.40;;;;;;4960776;28;20041;-90
2022/03/22 11:28:20;;;;;;;22.05;19.52;;;31.00;49.90;;;;;;4967272;28;20050;-90
2022/03/22 11:30:47;;;;;;;21.88;19.52;;;31.40;49.90;;;;;;4996178;28;20089;-90
2022/03/22 11:36:20;;;;;;;23.33;20.55;;;31.60;48.80;;;;;;4996067;28;20042;-93
2022/03/22 11:38:50;;;;;;;22.05;19.63;;;31.80;46.70;;;;;;4991238;28;20096;-92
2022/03/22 11:44:37;;;;;;;25.52;21.85;;;31.60;47.70;;;;;;4985856;28;20476;-92
2022/03/22 11:47:12;;;;;;;25.17;20.98;;;31.60;47.80;;;;;;5001750;28;20046;-91
2022/03/22 11:49:59;;;;;;;25.10;19.63;;;31.70;48.30;;;;;;4999522;28;20089;-92
2022/03/22 11:52:26;;;;;;;21.20;19.08;;;31.90;49.00;;;;;;4980999;28;20030;-88
2022/03/22 11:54:59;;;;;;;20.95;18.60;;;31.90;47.90;;;;;;4975768;28;20034;-88
2022/03/22 11:57:27;;;;;;;25.55;20.05;;;31.40;47.90;;;;;;5002820;28;20038;-88
2022/03/22 11:59:53;;;;;;;22.70;20.35;;;31.40;47.10;;;;;;4999916;28;20125;-88
2022/03/22 12:02:30;;;;;;;23.23;20.25;;;30.90;46.60;;;;;;4985535;28;20034;-88
2022/03/22 12:04:57;;;;;;;27.52;19.52;;;30.60;46.20;;;;;;4980061;28;20481;-88
2022/03/22 12:07:23;;;;;;;23.67;19.02;;;29.40;46.60;;;;;;4984614;28;20033;-88
2022/03/22 12:09:49;;;;;;;22.35;19.70;;;29.30;49.10;;;;;;5004139;28;20095;-88
2022/03/22 12:12:16;;;;;;;23.23;19.63;;;29.80;48.30;;;;;;4964129;28;20484;-88
2022/03/22 12:14:45;;;;;;;22.05;18.67;;;30.40;48.30;;;;;;4985789;28;20165;-88
2022/03/22 12:17:12;;;;;;;21.92;18.33;;;30.40;47.20;;;;;;4989387;28;20073;-87
2022/03/22 12:19:38;;;;;;;23.48;18.08;;;30.00;46.80;;;;;;4970658;28;20049;-88
2022/03/22 12:22:06;;;;;;;21.15;17.55;;;29.40;46.70;;;;;;4977250;28;20042;-88
2022/03/22 12:24:34;;;;;;;22.80;17.42;;;29.70;47.50;;;;;;4983451;28;20045;-87
2022/03/22 12:27:05;;;;;;;21.70;17.58;;;30.10;47.00;;;;;;4970560;28;20492;-88
2022/03/22 12:29:36;;;;;;;22.25;17.25;;;28.90;46.30;;;;;;4985697;28;20106;-88
2022/03/22 12:32:06;;;;;;;23.48;19.02;;;29.00;47.60;;;;;;4994452;28;20058;-87
2022/03/22 12:34:36;;;;;;;25.52;18.98;;;29.20;47.20;;;;;;4998396;28;20080;-88
2022/03/22 12:37:02;;;;;;;20.85;16.83;;;28.50;47.40;;;;;;5000825;28;20042;-88
2022/03/22 12:39:27;;;;;;;22.02;18.05;;;28.60;48.00;;;;;;4962151;28;20034;-87
2022/03/22 12:41:55;;;;;;;26.17;19.58;;;29.10;48.50;;;;;;4972485;28;20108;-88
2022/03/22 12:44:23;;;;;;;22.23;18.55;;;29.30;47.80;;;;;;5001841;28;20042;-88
2022/03/22 12:46:49;;;;;;;27.23;19.73;;;29.40;48.10;;;;;;4967198;28;20041;-88
2022/03/22 12:49:15;;;;;;;25.75;19.55;;;28.60;48.80;;;;;;4960200;28;20038;-88
2022/03/22 12:51:41;;;;;;;27.63;18.80;;;28.60;48.40;;;;;;4947001;28;20030;-88
2022/03/22 12:54:08;;;;;;;27.15;19.30;;;29.00;48.10;;;;;;4950992;28;20034;-88
2022/03/22 12:56:34;;;;;;;26.60;19.52;;;29.20;48.20;;;;;;4945052;28;20054;-89
2022/03/22 12:59:01;;;;;;;24.63;19.98;;;29.30;48.80;;;;;;4961901;28;20050;-89
2022/03/22 13:01:38;;;;;;;26.00;19.65;;;28.90;48.20;;;;;;4952480;28;20482;-89
2022/03/22 13:04:04;;;;;;;28.02;20.52;;;28.70;48.00;;;;;;4978277;28;20042;-88
2022/03/22 13:06:30;;;;;;;26.98;19.70;;;28.40;49.30;;;;;;4962087;28;20034;-87